Time;durP1;ratioP1;P1;durP2;ratioP2;P2;SDS_P1;SDS_P2;PMS_P1;PMS_P2;Temp;Humidity;BMP_temperature;BMP_pressure;BME280_temperature;BME280_humidity;BME280_pressure;Samples;Min_cycle;Max_cycle;Signal;HPM_P1;HPM_P2
2023/10/08 00:02:26;;;;;;;2.25;0.60;;;12.10;85.00;;;;;;5030734;28;20055;-66
2023/10/08 00:04:57;;;;;;;4.63;0.35;;;12.10;85.00;;;;;;5018931;28;20121;-67
2023/10/08 00:07:27;;;;;;;5.00;0.40;;;12.10;85.10;;;;;;5018190;28;20057;-67
2023/10/08 00:09:53;;;;;;;3.08;0.47;;;12.10;85.10;;;;;;5033652;28;20559;-66
2023/10/08 00:12:20;;;;;;;3.03;0.60;;;12.10;85.10;;;;;;5030759;28;20051;-66
2023/10/08 00:14:49;;;;;;;2.58;0.40;;;12.10;85.10;;;;;;5029429;28;20100;-67
2023/10/08 00:17:17;;;;;;;1.45;0.45;;;12.10;85.10;;;;;;5028284;28;20092;-67
2023/10/08 00:19:43;;;;;;;3.22;0.40;;;12.10;85.00;;;;;;5012966;28;20060;-67
2023/10/08 00:22:13;;;;;;;3.83;0.60;;;12.10;85.00;;;;;;5028078;28;20053;-67
2023/10/08 00:24:41;;;;;;;3.30;0.40;;;12.10;85.00;;;;;;5030125;28;20590;-67
2023/10/08 00:27:09;;;;;;;2.92;0.30;;;12.10;85.10;;;;;;5012369;28;20050;-67
2023/10/08 00:29:39;;;;;;;2.83;0.68;;;12.10;85.00;;;;;;5024323;28;20049;-67
2023/10/08 00:32:11;;;;;;;3.13;0.60;;;12.20;85.10;;;;;;5029923;28;20107;-67
2023/10/08 00:34:41;;;;;;;2.40;0.68;;;12.20;85.10;;;;;;5025195;28;20117;-67
2023/10/08 00:37:09;;;;;;;2.95;0.70;;;12.20;85.00;;;;;;5030372;28;20049;-66
2023/10/08 00:39:37;;;;;;;3.95;0.68;;;12.20;85.00;;;;;;5030432;28;20111;-67
2023/10/08 00:42:06;;;;;;;3.47;0.60;;;12.20;85.10;;;;;;5030295;28;20049;-68
2023/10/08 00:44:35;;;;;;;4.45;0.85;;;12.20;85.00;;;;;;5030318;28;20046;-65
2023/10/08 00:47:01;;;;;;;3.67;0.82;;;12.20;85.00;;;;;;5017218;28;20045;-67
2023/10/08 00:57:26;;;;;;;4.25;0.98;;;12.20;85.00;;;;;;5026987;28;20057;-67
2023/10/08 00:59:53;;;;;;;5.03;0.80;;;12.20;85.00;;;;;;5027664;28;20132;-67
2023/10/08 01:02:25;;;;;;;4.72;0.70;;;12.20;85.10;;;;;;5025015;28;20050;-67
2023/10/08 01:04:51;;;;;;;5.38;0.93;;;12.20;85.00;;;;;;5023754;28;20098;-66
2023/10/08 01:07:18;;;;;;;3.25;0.75;;;12.20;85.00;;;;;;5024191;28;20432;-67
2023/10/08 01:09:49;;;;;;;4.50;0.93;;;12.20;85.00;;;;;;5010215;28;20060;-67
2023/10/08 01:12:21;;;;;;;4.50;0.80;;;12.20;85.00;;;;;;5018686;28;20110;-68
2023/10/08 01:14:48;;;;;;;5.30;0.82;;;12.20;85.00;;;;;;5029803;28;20507;-67
2023/10/08 01:17:15;;;;;;;3.65;0.70;;;12.20;85.00;;;;;;5029276;28;20643;-68
2023/10/08 01:19:53;;;;;;;5.00;1.05;;;12.30;85.00;;;;;;5014909;28;20121;-67
2023/10/08 01:22:21;;;;;;;4.53;1.13;;;12.30;85.00;;;;;;5012769;28;20404;-67
2023/10/08 01:24:50;;;;;;;6.43;1.25;;;12.30;84.90;;;;;;5027250;28;20052;-67
2023/10/08 01:27:24;;;;;;;4.35;1.20;;;12.30;84.90;;;;;;5029755;28;20041;-67
2023/10/08 01:29:51;;;;;;;7.53;1.20;;;12.20;84.80;;;;;;5012082;28;20064;-67
2023/10/08 01:32:21;;;;;;;5.05;0.90;;;12.20;84.80;;;;;;5028443;28;20132;-67
2023/10/08 01:34:48;;;;;;;8.50;1.50;;;12.20;84.80;;;;;;5011517;28;20045;-67
2023/10/08 01:37:18;;;;;;;5.35;1.00;;;12.20;84.70;;;;;;5012071;28;20038;-67
2023/10/08 01:39:50;;;;;;;8.07;1.17;;;12.20;84.60;;;;;;5017399;28;20045;-67
2023/10/08 01:42:17;;;;;;;7.35;1.25;;;12.20;84.60;;;;;;5029613;28;20052;-67
2023/10/08 01:44:48;;;;;;;5.78;1.35;;;12.20;84.60;;;;;;5029787;28;20052;-67
2023/10/08 01:47:16;;;;;;;7.78;1.27;;;12.20;84.60;;;;;;5028398;28;20140;-67
2023/10/08 01:49:46;;;;;;;10.02;1.50;;;12.20;84.60;;;;;;5029747;28;20056;-67
2023/10/08 01:52:20;;;;;;;5.40;1.13;;;12.30;84.70;;;;;;5012222;28;20381;-67
2023/10/08 01:54:46;;;;;;;7.85;1.02;;;12.30;84.80;;;;;;5021674;28;20100;-67
2023/10/08 01:57:12;;;;;;;4.53;1.10;;;12.30;84.70;;;;;;5026669;28;20432;-66
2023/10/08 01:59:38;;;;;;;8.68;1.60;;;12.30;84.70;;;;;;5028726;28;20057;-67
2023/10/08 02:02:06;;;;;;;9.18;1.48;;;12.30;84.70;;;;;;5040691;28;20045;-67
2023/10/08 02:04:37;;;;;;;5.55;1.00;;;12.30;84.70;;;;;;5029690;28;20073;-67
2023/10/08 02:07:03;;;;;;;;;;;12.30;84.70;;;;;;5029688;28;20504;-67
2023/10/08 02:09:30;;;;;;;8.55;1.20;;;12.30;84.80;;;;;;5029346;28;19928;-67
2023/10/08 02:11:56;;;;;;;11.40;1.25;;;12.30;84.90;;;;;;5028491;28;20147;-67
2023/10/08 02:14:22;;;;;;;9.27;1.25;;;12.30;84.90;;;;;;5018072;28;20072;-67
2023/10/08 02:16:49;;;;;;;11.32;1.73;;;12.30;84.90;;;;;;5012218;28;20050;-67
2023/10/08 02:19:18;;;;;;;5.55;1.10;;;12.30;84.80;;;;;;5013812;28;20046;-67
2023/10/08 02:21:46;;;;;;;9.93;1.63;;;12.30;84.80;;;;;;5011832;28;20128;-66
2023/10/08 02:24:12;;;;;;;8.80;1.40;;;12.30;84.80;;;;;;5032520;28;20053;-66
2023/10/08 02:26:39;;;;;;;9.05;1.83;;;12.20;84.90;;;;;;5033185;28;20053;-67
2023/10/08 02:29:11;;;;;;;7.05;1.40;;;12.30;84.80;;;;;;5027208;28;20041;-67
2023/10/08 02:31:40;;;;;;;5.47;1.15;;;12.20;84.80;;;;;;5033224;28;20041;-66
2023/10/08 02:34:09;;;;;;;10.10;1.48;;;12.20;84.80;;;;;;5018782;28;20052;-67
2023/10/08 02:36:42;;;;;;;12.00;1.50;;;12.20;84.80;;;;;;5025214;28;20531;-67
2023/10/08 02:39:13;;;;;;;7.85;1.15;;;12.20;84.80;;;;;;5015123;28;20515;-67
2023/10/08 02:41:46;;;;;;;5.43;1.23;;;12.30;84.80;;;;;;5020393;28;20095;-67
2023/10/08 02:44:16;;;;;;;7.75;1.05;;;12.30;84.80;;;;;;5011139;28;20046;-66
2023/10/08 02:46:48;;;;;;;7.43;1.50;;;12.30;84.80;;;;;;5012640;28;20042;-67
2023/10/08 02:49:22;;;;;;;9.27;1.10;;;12.30;84.80;;;;;;5013347;28;20048;-67
2023/10/08 02:51:51;;;;;;;10.60;1.38;;;12.30;84.80;;;;;;5012372;28;20081;-66
2023/10/08 02:54:22;;;;;;;11.68;1.45;;;12.30;84.80;;;;;;5012991;28;20396;-67
2023/10/08 02:56:51;;;;;;;;;;;12.30;84.80;;;;;;5024714;28;20152;-67
2023/10/08 02:59:20;;;;;;;6.43;1.10;;;12.30;84.80;;;;;;5032268;28;19931;-66
2023/10/08 03:01:47;;;;;;;5.97;1.23;;;12.30;84.80;;;;;;5032172;28;20096;-67
2023/10/08 03:04:18;;;;;;;6.03;1.13;;;12.30;84.70;;;;;;5032283;28;20046;-66
2023/10/08 03:06:50;;;;;;;;;;;12.30;84.70;;;;;;5032692;28;20079;-67
2023/10/08 03:09:20;;;;;;;10.70;1.60;;;12.30;84.70;;;;;;5031767;28;19928;-67
2023/10/08 03:11:48;;;;;;;7.43;1.35;;;12.30;84.70;;;;;;5020977;28;20125;-67
2023/10/08 03:14:26;;;;;;;7.38;1.50;;;12.30;84.70;;;;;;5022332;28;20052;-67
2023/10/08 03:17:07;;;;;;;7.63;1.55;;;12.40;84.70;;;;;;4994587;28;20115;-65
2023/10/08 03:19:32;;;;;;;10.73;1.58;;;12.40;84.70;;;;;;5013155;28;20394;-66
2023/10/08 03:21:58;;;;;;;11.65;2.13;;;12.40;84.70;;;;;;5027555;28;20392;-67
2023/10/08 03:24:37;;;;;;;9.25;1.75;;;12.30;84.60;;;;;;5025265;28;20053;-67
2023/10/08 03:27:07;;;;;;;13.70;1.80;;;12.40;84.60;;;;;;5027113;28;20135;-67
2023/10/08 03:29:40;;;;;;;13.85;1.70;;;12.40;84.60;;;;;;5024780;28;20174;-66
2023/10/08 03:32:14;;;;;;;13.60;2.00;;;12.40;84.50;;;;;;5021435;28;20132;-67
2023/10/08 03:34:45;;;;;;;9.50;1.67;;;12.40;84.60;;;;;;5028482;28;20124;-67
2023/10/08 03:37:19;;;;;;;;;;;12.30;84.50;;;;;;5029590;28;20500;-66
2023/10/08 03:39:51;;;;;;;11.55;1.80;;;12.30;84.40;;;;;;5028719;28;20384;-67
2023/10/08 03:42:22;;;;;;;15.70;2.10;;;12.30;84.40;;;;;;5028410;28;20045;-67
2023/10/08 03:44:52;;;;;;;;;;;12.30;84.40;;;;;;5029385;28;20095;-67
2023/10/08 03:47:26;;;;;;;8.45;1.73;;;12.30;84.40;;;;;;5028594;28;19925;-67
2023/10/08 03:49:53;;;;;;;13.65;2.40;;;12.30;84.40;;;;;;5039091;28;20056;-65
2023/10/08 03:52:25;;;;;;;12.23;1.77;;;12.30;84.40;;;;;;5030380;28;20526;-67
2023/10/08 03:55:20;;;;;;;11.77;1.85;;;12.30;84.40;;;;;;5031919;28;20061;-67
2023/10/08 03:57:48;;;;;;;9.98;2.00;;;12.30;84.40;;;;;;5027704;28;20088;-67
2023/10/08 04:00:18;;;;;;;12.45;2.10;;;12.30;84.30;;;;;;5026110;28;20056;-65
2023/10/08 04:02:54;;;;;;;8.57;1.90;;;12.40;84.30;;;;;;5022178;28;20537;-67
2023/10/08 04:05:27;;;;;;;9.05;1.83;;;12.40;84.40;;;;;;5023873;28;20391;-66
2023/10/08 04:13:08;;;;;;;7.22;1.25;;;12.40;84.30;;;;;;5017456;28;20137;-66
2023/10/08 04:15:34;;;;;;;10.63;1.95;;;12.40;84.30;;;;;;5031464;28;20068;-67
2023/10/08 04:18:02;;;;;;;6.90;1.80;;;12.40;84.30;;;;;;5031187;28;20050;-67
2023/10/08 04:20:38;;;;;;;9.65;1.83;;;12.40;84.30;;;;;;5022789;28;20378;-67
2023/10/08 04:23:18;;;;;;;7.75;1.60;;;12.40;84.30;;;;;;5026389;28;20044;-66
2023/10/08 04:25:44;;;;;;;11.73;1.63;;;12.40;84.20;;;;;;5031056;28;20111;-66
2023/10/08 04:28:20;;;;;;;13.73;2.00;;;12.40;84.30;;;;;;5012400;28;20038;-66
2023/10/08 04:30:47;;;;;;;12.40;2.15;;;12.30;84.30;;;;;;5030670;28;20045;-66
2023/10/08 04:33:14;;;;;;;10.40;2.50;;;12.30;84.20;;;;;;5017345;28;20045;-66
2023/10/08 04:35:48;;;;;;;10.20;2.03;;;12.30;84.20;;;;;;5030314;28;20041;-66
2023/10/08 04:38:17;;;;;;;12.75;2.30;;;12.30;84.20;;;;;;5030560;28;20549;-66
2023/10/08 04:40:50;;;;;;;11.93;2.53;;;12.30;84.20;;;;;;5030264;28;20052;-67
2023/10/08 04:44:07;;;;;;;11.90;2.15;;;12.30;84.20;;;;;;5012719;28;20136;-67
2023/10/08 04:46:19;;;;;;;12.03;2.53;;;12.30;84.10;;;;;;5010667;28;20057;-66
2023/10/08 04:48:51;;;;;;;9.88;2.80;;;12.30;84.00;;;;;;5030829;28;20492;-66
2023/10/08 04:51:18;;;;;;;12.35;2.67;;;12.30;84.00;;;;;;5038616;28;20037;-67
2023/10/08 04:53:45;;;;;;;11.85;2.50;;;12.30;84.00;;;;;;5029637;28;20052;-66
2023/10/08 04:56:18;;;;;;;12.93;2.40;;;12.30;83.90;;;;;;5029815;28;20500;-66
2023/10/08 04:58:48;;;;;;;9.13;2.50;;;12.20;83.70;;;;;;5029856;28;20057;-66
2023/10/08 05:01:17;;;;;;;15.90;2.78;;;12.20;83.70;;;;;;5019696;28;20045;-66
2023/10/08 05:06:50;;;;;;;8.77;2.10;;;12.20;83.40;;;;;;4993374;28;20049;-66
2023/10/08 05:12:11;;;;;;;8.75;1.67;;;12.20;83.10;;;;;;5026311;28;20072;-66
2023/10/08 05:14:45;;;;;;;;;;;12.10;83.00;;;;;;5030316;28;20504;-66
2023/10/08 05:17:21;;;;;;;11.07;2.00;;;12.10;82.90;;;;;;5017908;28;19999;-67
2023/10/08 05:20:17;;;;;;;11.07;1.92;;;12.10;83.00;;;;;;5029271;28;20053;-67
2023/10/08 05:25:24;;;;;;;8.90;1.70;;;12.10;82.80;;;;;;5022853;28;20492;-66
2023/10/08 05:33:12;;;;;;;11.27;2.20;;;12.10;82.70;;;;;;5037224;28;20096;-66
2023/10/08 06:13:04;;;;;;;11.38;3.00;;;12.00;83.00;;;;;;5026796;28;20049;-66
2023/10/08 06:15:49;;;;;;;9.98;2.72;;;12.00;83.10;;;;;;5028594;28;20411;-66
2023/10/08 06:18:19;;;;;;;13.45;4.22;;;12.00;83.20;;;;;;5029010;28;20061;-67
2023/10/08 06:20:49;;;;;;;10.60;2.80;;;12.00;83.20;;;;;;5028990;28;20055;-66
2023/10/08 06:23:18;;;;;;;12.13;2.97;;;11.90;83.30;;;;;;5013602;28;20041;-67
2023/10/08 06:25:53;;;;;;;15.10;2.80;;;11.90;83.40;;;;;;5017384;28;20124;-66
2023/10/08 06:28:20;;;;;;;11.65;2.28;;;11.90;83.40;;;;;;5010059;28;20472;-66
2023/10/08 06:30:47;;;;;;;13.00;2.15;;;11.90;83.50;;;;;;5010959;28;20056;-66
2023/10/08 06:33:13;;;;;;;10.15;1.88;;;11.90;83.50;;;;;;5016307;28;20041;-67
2023/10/08 06:35:44;;;;;;;11.98;2.22;;;11.90;83.50;;;;;;5029230;28;20046;-66
2023/10/08 06:38:10;;;;;;;12.48;2.53;;;11.90;83.60;;;;;;5028532;28;20055;-67
2023/10/08 06:43:11;;;;;;;10.30;2.67;;;11.90;83.60;;;;;;5033115;28;20103;-67
2023/10/08 06:45:58;;;;;;;11.07;1.88;;;11.90;83.60;;;;;;5028830;28;20053;-67
2023/10/08 06:48:24;;;;;;;13.30;3.00;;;11.90;83.60;;;;;;5016189;28;20049;-67
2023/10/08 06:50:56;;;;;;;13.18;3.75;;;11.90;83.70;;;;;;5024929;28;20484;-67
2023/10/08 06:53:23;;;;;;;10.48;2.92;;;12.00;83.70;;;;;;5010840;28;20492;-66
2023/10/08 06:55:56;;;;;;;14.40;4.85;;;12.00;83.70;;;;;;5028780;28;20151;-67
2023/10/08 06:58:25;;;;;;;12.55;2.58;;;12.00;83.70;;;;;;5028594;28;20057;-67
2023/10/08 07:00:52;;;;;;;14.13;2.60;;;12.10;83.70;;;;;;5028486;28;20076;-67
2023/10/08 07:03:18;;;;;;;12.05;2.60;;;12.10;83.70;;;;;;5017441;28;20497;-67
2023/10/08 07:05:54;;;;;;;12.90;2.30;;;12.10;83.50;;;;;;5012449;28;20571;-67
2023/10/08 07:08:25;;;;;;;10.18;2.50;;;12.10;83.30;;;;;;5012205;28;20508;-67
2023/10/08 07:10:53;;;;;;;13.38;2.20;;;12.20;83.40;;;;;;5021364;28;20520;-66
2023/10/08 07:13:21;;;;;;;8.65;2.45;;;12.20;83.40;;;;;;5016819;28;20612;-65
2023/10/08 07:15:52;;;;;;;11.70;2.67;;;12.30;83.30;;;;;;5032239;28;20050;-65
2023/10/08 07:18:24;;;;;;;14.30;3.03;;;12.30;83.40;;;;;;4998127;28;20093;-62
2023/10/08 07:20:55;;;;;;;11.80;2.88;;;12.30;83.40;;;;;;5023776;28;20084;-64
2023/10/08 07:23:25;;;;;;;11.60;2.33;;;12.40;83.30;;;;;;5028976;28;20166;-65
2023/10/08 07:26:11;;;;;;;11.93;2.65;;;12.50;83.20;;;;;;5031784;28;20045;-65
2023/10/08 07:28:39;;;;;;;12.93;2.00;;;12.50;83.20;;;;;;5021297;28;21137;-66
2023/10/08 07:31:15;;;;;;;7.57;1.88;;;12.50;83.10;;;;;;5031742;28;20099;-67
2023/10/08 07:33:46;;;;;;;12.13;2.25;;;12.50;82.90;;;;;;5023221;28;20491;-67
2023/10/08 07:36:12;;;;;;;11.93;2.15;;;12.50;82.80;;;;;;5029965;28;20084;-67
2023/10/08 07:38:43;;;;;;;8.20;1.83;;;12.50;82.80;;;;;;5038765;28;20478;-66
2023/10/08 07:41:12;;;;;;;12.50;2.05;;;12.50;83.00;;;;;;5030445;28;20048;-67
2023/10/08 07:43:39;;;;;;;12.20;2.13;;;12.50;82.90;;;;;;5031502;28;20107;-67
2023/10/08 07:46:05;;;;;;;12.10;2.22;;;12.50;82.90;;;;;;5030948;28;20042;-66
2023/10/08 07:48:31;;;;;;;8.43;2.25;;;12.50;82.80;;;;;;5031893;28;20060;-67
2023/10/08 07:50:57;;;;;;;10.18;2.10;;;12.50;82.70;;;;;;5031775;28;20041;-67
2023/10/08 07:53:37;;;;;;;10.40;2.15;;;12.50;82.80;;;;;;5021194;28;20163;-67
2023/10/08 07:56:06;;;;;;;11.77;2.28;;;12.50;82.70;;;;;;5030436;28;20046;-66
2023/10/08 07:58:35;;;;;;;12.20;1.88;;;12.50;82.30;;;;;;5031363;28;20056;-67
2023/10/08 08:01:06;;;;;;;10.48;2.15;;;12.50;82.30;;;;;;5024093;28;20053;-67
2023/10/08 08:03:39;;;;;;;14.32;1.70;;;12.60;82.10;;;;;;5036258;28;20102;-67
2023/10/08 08:06:09;;;;;;;11.50;2.25;;;12.70;82.00;;;;;;5032572;28;20054;-66
2023/10/08 08:08:36;;;;;;;9.90;1.85;;;12.70;82.10;;;;;;5041279;28;20466;-66
2023/10/08 08:11:12;;;;;;;11.45;1.83;;;12.70;82.20;;;;;;5047767;28;20429;-67
2023/10/08 08:13:44;;;;;;;13.88;2.53;;;12.70;82.10;;;;;;5032900;28;20056;-67
2023/10/08 08:16:16;;;;;;;9.63;2.30;;;12.80;82.40;;;;;;5040207;28;20041;-67
2023/10/08 08:18:48;;;;;;;12.65;2.20;;;12.90;82.40;;;;;;5038208;28;20072;-66
2023/10/08 08:21:16;;;;;;;13.93;1.95;;;12.90;81.90;;;;;;5041674;28;20648;-67
2023/10/08 08:23:47;;;;;;;11.38;2.20;;;13.00;81.70;;;;;;5037044;28;20052;-67
2023/10/08 08:26:27;;;;;;;11.85;2.03;;;13.00;81.70;;;;;;5034587;28;20505;-67
2023/10/08 08:28:57;;;;;;;8.57;1.83;;;13.00;81.60;;;;;;5030711;28;20084;-67
2023/10/08 08:31:25;;;;;;;9.95;2.13;;;13.10;81.50;;;;;;5041978;28;20158;-67
2023/10/08 08:33:56;;;;;;;11.13;2.13;;;13.10;81.40;;;;;;5047534;28;20087;-67
2023/10/08 08:36:23;;;;;;;11.00;2.08;;;13.10;81.40;;;;;;5018807;28;20052;-67
2023/10/08 08:38:49;;;;;;;12.00;2.00;;;13.10;81.00;;;;;;5048868;28;20045;-67
2023/10/08 08:41:20;;;;;;;8.02;1.90;;;13.20;80.50;;;;;;5032538;28;20049;-67
2023/10/08 08:43:58;;;;;;;12.85;2.10;;;13.20;80.40;;;;;;5038517;28;20045;-66
2023/10/08 08:46:39;;;;;;;8.82;2.30;;;13.20;80.50;;;;;;5039681;28;20371;-67
2023/10/08 08:49:07;;;;;;;11.05;2.00;;;13.20;80.40;;;;;;5039493;28;20054;-65
2023/10/08 08:51:35;;;;;;;10.80;1.90;;;13.20;80.30;;;;;;5027789;28;20049;-67
2023/10/08 08:54:07;;;;;;;9.00;2.13;;;13.30;80.20;;;;;;5038638;28;20047;-67
2023/10/08 08:56:35;;;;;;;11.00;2.10;;;13.30;80.10;;;;;;5029346;28;20050;-67
2023/10/08 08:59:01;;;;;;;11.82;2.38;;;13.30;79.90;;;;;;5013211;28;20606;-67
2023/10/08 09:01:29;;;;;;;12.90;1.88;;;13.30;79.00;;;;;;5037624;28;20059;-67
2023/10/08 09:04:05;;;;;;;11.90;2.20;;;13.30;79.00;;;;;;5047001;28;20070;-67
2023/10/08 09:06:34;;;;;;;14.95;2.25;;;13.40;78.90;;;;;;5037030;28;20045;-67
2023/10/08 09:09:44;;;;;;;8.48;1.75;;;13.40;78.10;;;;;;5048447;28;20049;-67
2023/10/08 09:11:54;;;;;;;13.15;2.00;;;13.40;77.80;;;;;;5035092;28;20348;-67
2023/10/08 09:14:22;;;;;;;12.45;1.90;;;13.50;77.30;;;;;;5043248;28;20052;-67
2023/10/08 09:16:49;;;;;;;11.40;1.58;;;13.50;77.50;;;;;;5025027;28;20049;-66
2023/10/08 09:19:18;;;;;;;8.27;1.70;;;13.50;77.00;;;;;;5025967;28;20077;-67
2023/10/08 09:22:03;;;;;;;11.55;2.00;;;13.50;76.60;;;;;;5015660;28;20057;-67
2023/10/08 09:24:40;;;;;;;11.15;1.83;;;13.50;76.10;;;;;;5022078;28;20045;-67
2023/10/08 09:27:07;;;;;;;12.88;2.22;;;13.50;76.40;;;;;;5016852;28;20049;-67
2023/10/08 09:29:39;;;;;;;11.10;1.92;;;13.50;76.10;;;;;;5021123;28;20045;-67
2023/10/08 09:32:07;;;;;;;9.95;1.85;;;13.60;75.60;;;;;;5030664;28;20144;-67
2023/10/08 09:34:33;;;;;;;12.15;1.63;;;13.60;75.40;;;;;;5020928;28;20049;-66
2023/10/08 09:37:00;;;;;;;9.82;2.30;;;13.70;75.50;;;;;;5028867;28;20042;-67
2023/10/08 09:39:29;;;;;;;14.13;2.08;;;13.70;75.30;;;;;;5007411;28;20072;-64
2023/10/08 09:41:58;;;;;;;11.00;2.35;;;13.80;74.70;;;;;;5020434;28;21082;-67
2023/10/08 09:44:25;;;;;;;13.18;2.30;;;13.80;74.80;;;;;;5025978;28;20431;-66
2023/10/08 09:47:04;;;;;;;15.38;2.58;;;13.80;74.40;;;;;;5026420;28;20502;-67
2023/10/08 09:49:46;;;;;;;12.38;2.10;;;13.90;74.00;;;;;;5009375;28;20053;-67
2023/10/08 09:52:15;;;;;;;8.07;1.63;;;13.90;74.10;;;;;;5022768;28;20074;-67
2023/10/08 09:54:53;;;;;;;10.32;2.28;;;13.90;74.00;;;;;;5023559;28;20052;-67
2023/10/08 09:57:23;;;;;;;13.95;2.50;;;13.90;74.00;;;;;;5026686;28;20053;-66
2023/10/08 09:59:49;;;;;;;9.30;1.85;;;14.00;74.40;;;;;;5024924;28;20056;-67
2023/10/08 10:02:16;;;;;;;13.50;2.28;;;14.10;74.30;;;;;;5028651;28;20061;-67
2023/10/08 10:04:44;;;;;;;12.50;2.13;;;14.10;73.70;;;;;;5032747;28;20527;-67
2023/10/08 10:07:12;;;;;;;9.00;1.95;;;14.20;73.10;;;;;;5026333;28;20566;-67
2023/10/08 10:09:42;;;;;;;9.02;2.00;;;14.20;72.80;;;;;;5032768;28;20133;-67
2023/10/08 10:12:11;;;;;;;8.73;2.20;;;14.30;73.10;;;;;;5024781;28;20049;-67
2023/10/08 10:14:46;;;;;;;9.57;2.05;;;14.40;73.00;;;;;;5024447;28;20057;-67
2023/10/08 10:17:22;;;;;;;12.43;1.85;;;14.40;72.00;;;;;;5027583;28;20037;-65
2023/10/08 10:19:54;;;;;;;15.40;1.92;;;14.40;72.20;;;;;;5021578;28;20053;-70
2023/10/08 10:22:32;;;;;;;11.25;2.10;;;14.50;71.70;;;;;;5020140;28;20503;-67
2023/10/08 10:25:03;;;;;;;9.57;1.70;;;14.60;71.40;;;;;;5024731;28;20422;-67
2023/10/08 10:27:29;;;;;;;10.70;2.08;;;14.70;71.60;;;;;;5030498;28;20052;-66
2023/10/08 10:30:08;;;;;;;12.05;2.00;;;14.70;71.30;;;;;;5023279;28;20050;-67
2023/10/08 10:32:35;;;;;;;7.65;1.60;;;14.80;70.90;;;;;;5024536;28;20139;-67
2023/10/08 10:35:03;;;;;;;16.40;1.63;;;14.70;70.40;;;;;;5028481;28;20121;-66
2023/10/08 10:37:40;;;;;;;9.35;2.05;;;14.70;70.80;;;;;;5031205;28;20175;-67
2023/10/08 10:40:11;;;;;;;8.88;2.22;;;14.70;70.70;;;;;;5025849;28;20503;-66
2023/10/08 10:42:42;;;;;;;13.77;2.10;;;14.70;70.50;;;;;;5026853;28;20523;-67
2023/10/08 10:48:11;;;;;;;10.85;1.90;;;14.70;69.80;;;;;;5029301;28;20423;-67
2023/10/08 10:51:07;;;;;;;10.20;1.50;;;14.60;69.90;;;;;;5029438;28;20128;-66
2023/10/08 10:53:29;;;;;;;4.28;1.48;;;14.60;69.70;;;;;;5025561;28;20057;-67
2023/10/08 10:56:03;;;;;;;7.75;2.00;;;14.60;70.30;;;;;;5026417;28;20044;-67
2023/10/08 10:58:38;;;;;;;16.17;2.28;;;14.60;70.10;;;;;;5029659;28;20057;-67
2023/10/08 11:01:15;;;;;;;10.27;1.65;;;14.70;69.30;;;;;;5032989;28;20053;-67
2023/10/08 11:03:44;;;;;;;7.45;1.52;;;14.70;69.20;;;;;;5013449;28;20152;-66
2023/10/08 11:06:15;;;;;;;7.95;2.08;;;14.70;69.00;;;;;;5036878;28;20052;-67
2023/10/08 11:08:46;;;;;;;14.32;2.03;;;14.70;69.20;;;;;;5028492;28;20512;-67
2023/10/08 11:11:11;;;;;;;9.10;1.85;;;14.70;69.60;;;;;;5029488;28;20056;-67
2023/10/08 11:13:38;;;;;;;10.48;2.28;;;14.70;69.20;;;;;;5028811;28;20049;-67
2023/10/08 11:16:07;;;;;;;8.88;1.55;;;14.70;69.30;;;;;;5020903;28;20137;-67
2023/10/08 11:18:33;;;;;;;8.57;2.30;;;14.70;69.70;;;;;;5032093;28;20155;-67
2023/10/08 11:21:15;;;;;;;9.65;1.65;;;14.70;69.60;;;;;;5028643;28;20049;-67
2023/10/08 11:23:52;;;;;;;9.18;1.92;;;14.70;69.20;;;;;;5029757;28;20435;-67
2023/10/08 11:26:19;;;;;;;8.63;1.92;;;14.70;69.80;;;;;;5028721;28;20037;-67
2023/10/08 11:28:47;;;;;;;12.30;1.92;;;14.70;69.50;;;;;;5029025;28;20056;-67
2023/10/08 11:31:20;;;;;;;11.75;2.08;;;14.70;69.60;;;;;;5028938;28;20122;-67
2023/10/08 11:33:55;;;;;;;13.35;1.73;;;14.80;69.60;;;;;;5010909;28;20100;-67
2023/10/08 11:36:42;;;;;;;10.20;2.00;;;14.70;69.30;;;;;;5029238;28;20049;-66
2023/10/08 11:39:21;;;;;;;15.73;2.33;;;14.80;69.20;;;;;;5029031;28;20088;-67
2023/10/08 11:41:56;;;;;;;11.85;1.90;;;14.70;69.10;;;;;;5027626;28;20439;-67
2023/10/08 11:44:23;;;;;;;8.80;1.83;;;14.80;69.20;;;;;;5028850;28;20041;-67
2023/10/08 11:46:52;;;;;;;11.88;2.00;;;14.80;69.60;;;;;;5031496;28;20057;-67
2023/10/08 11:49:18;;;;;;;7.90;1.70;;;14.90;69.80;;;;;;5024831;28;20377;-66
2023/10/08 11:51:45;;;;;;;10.00;2.42;;;14.90;69.40;;;;;;5017925;28;20049;-65
2023/10/08 11:54:12;;;;;;;14.48;2.15;;;14.90;69.60;;;;;;5028216;28;20053;-66
2023/10/08 11:56:38;;;;;;;7.25;1.40;;;14.90;69.40;;;;;;5027952;28;20054;-67
2023/10/08 11:59:12;;;;;;;8.15;1.67;;;14.90;69.30;;;;;;5026887;28;20827;-67
2023/10/08 12:01:42;;;;;;;14.57;1.90;;;14.90;69.20;;;;;;5016246;28;20101;-67
2023/10/08 12:04:12;;;;;;;12.85;2.08;;;14.90;68.90;;;;;;5020813;28;20057;-64
2023/10/08 12:06:46;;;;;;;10.65;1.90;;;15.00;69.50;;;;;;5030711;28;20045;-66
2023/10/08 12:09:12;;;;;;;8.18;2.30;;;15.00;69.80;;;;;;5025107;28;20044;-66
2023/10/08 12:11:39;;;;;;;9.95;1.90;;;15.00;70.00;;;;;;5023032;28;20108;-66
2023/10/08 12:14:05;;;;;;;11.02;2.00;;;15.00;70.20;;;;;;5019494;28;20546;-65
2023/10/08 12:16:35;;;;;;;11.15;2.03;;;15.00;69.80;;;;;;5025561;28;20171;-65
2023/10/08 12:19:02;;;;;;;12.13;2.15;;;15.00;70.10;;;;;;5018490;28;20045;-64
2023/10/08 12:21:31;;;;;;;8.18;2.10;;;15.10;70.30;;;;;;5018046;28;20045;-67
2023/10/08 12:23:58;;;;;;;8.05;1.60;;;15.20;70.30;;;;;;5022120;28;20056;-66
2023/10/08 12:26:25;;;;;;;7.53;1.63;;;15.30;70.40;;;;;;5028107;28;20061;-67
2023/10/08 12:28:53;;;;;;;6.75;1.45;;;15.30;69.20;;;;;;5020549;28;20048;-66
2023/10/08 12:31:24;;;;;;;7.72;1.48;;;15.30;68.90;;;;;;5027101;28;20057;-66
2023/10/08 12:33:53;;;;;;;11.13;1.90;;;15.40;69.00;;;;;;5017490;28;20152;-66
2023/10/08 12:36:26;;;;;;;9.48;1.65;;;15.40;69.20;;;;;;5026020;28;20103;-67
2023/10/08 12:38:58;;;;;;;7.70;1.95;;;15.50;69.00;;;;;;5029279;28;20045;-66
2023/10/08 12:41:27;;;;;;;9.25;1.92;;;15.50;69.00;;;;;;5012091;28;20392;-66
2023/10/08 12:43:53;;;;;;;13.18;2.17;;;15.60;69.00;;;;;;5028295;28;20038;-66
2023/10/08 12:46:26;;;;;;;6.72;1.45;;;15.60;68.70;;;;;;5021203;28;20151;-66
2023/10/08 12:48:54;;;;;;;10.10;1.85;;;15.60;68.60;;;;;;5025528;28;20046;-67
2023/10/08 12:51:24;;;;;;;11.02;2.22;;;15.60;68.60;;;;;;5028179;28;20053;-66
2023/10/08 12:53:58;;;;;;;10.80;2.00;;;15.60;68.50;;;;;;5027580;28;20120;-66
2023/10/08 12:56:31;;;;;;;8.45;1.55;;;15.60;68.40;;;;;;5028545;28;20107;-67
2023/10/08 12:58:58;;;;;;;7.05;1.70;;;15.50;67.90;;;;;;5021375;28;20081;-66
2023/10/08 13:01:28;;;;;;;9.80;1.98;;;15.40;67.90;;;;;;5028998;28;20088;-65
2023/10/08 13:03:59;;;;;;;7.20;1.52;;;15.40;68.40;;;;;;5027848;28;20088;-66
2023/10/08 13:06:29;;;;;;;10.10;1.85;;;15.40;68.70;;;;;;5027118;28;21043;-66
2023/10/08 13:08:56;;;;;;;8.63;1.98;;;15.40;68.60;;;;;;5026268;28;20120;-64
2023/10/08 13:11:23;;;;;;;6.90;1.88;;;15.40;68.80;;;;;;5007043;28;20045;-66
2023/10/08 13:13:56;;;;;;;9.85;1.77;;;15.40;69.00;;;;;;5029022;28;20046;-67
2023/10/08 13:16:23;;;;;;;9.77;1.83;;;15.40;68.40;;;;;;5036758;28;20060;-66
2023/10/08 13:18:50;;;;;;;7.45;1.60;;;15.40;68.60;;;;;;5028466;28;20064;-66
2023/10/08 13:21:18;;;;;;;13.20;1.80;;;15.50;68.90;;;;;;5026321;28;20561;-66
2023/10/08 13:23:44;;;;;;;8.45;1.70;;;15.50;69.00;;;;;;5031006;28;20407;-66
2023/10/08 13:26:16;;;;;;;6.78;1.80;;;15.60;68.80;;;;;;5026079;28;20045;-66
2023/10/08 13:28:44;;;;;;;9.27;1.48;;;15.60;68.70;;;;;;5029602;28;20049;-66
2023/10/08 13:31:11;;;;;;;7.57;1.40;;;15.60;68.80;;;;;;5041817;28;20049;-66
2023/10/08 13:33:48;;;;;;;9.77;1.60;;;15.60;68.80;;;;;;5027215;28;20061;-66
2023/10/08 13:36:14;;;;;;;6.75;1.60;;;15.60;68.70;;;;;;5027059;28;20231;-66
2023/10/08 13:38:40;;;;;;;12.60;2.25;;;15.60;68.50;;;;;;5026250;28;20443;-66
2023/10/08 13:41:14;;;;;;;10.70;2.05;;;15.60;68.60;;;;;;5033094;28;20083;-66
2023/10/08 13:43:45;;;;;;;10.52;1.73;;;15.70;68.70;;;;;;5025848;28;20049;-66
2023/10/08 13:46:14;;;;;;;10.95;1.90;;;15.70;68.70;;;;;;5027865;28;20365;-66
2023/10/08 13:48:41;;;;;;;8.00;1.55;;;15.60;68.30;;;;;;5027729;28;20404;-66
2023/10/08 13:51:13;;;;;;;10.32;2.10;;;15.60;68.40;;;;;;5028365;28;20080;-66
2023/10/08 13:53:51;;;;;;;13.25;1.88;;;15.60;68.60;;;;;;5022911;28;20048;-66
2023/10/08 13:56:18;;;;;;;7.22;1.77;;;15.60;68.30;;;;;;5025212;28;20048;-66
2023/10/08 13:58:46;;;;;;;8.65;1.80;;;15.50;68.70;;;;;;5041653;28;20072;-67
2023/10/08 14:01:21;;;;;;;12.50;1.77;;;15.50;69.00;;;;;;5032571;28;20069;-66
2023/10/08 14:03:55;;;;;;;8.30;1.98;;;15.50;69.30;;;;;;5028278;28;20045;-66
2023/10/08 14:06:22;;;;;;;10.02;1.73;;;15.50;69.30;;;;;;5025272;28;20400;-66
2023/10/08 14:08:51;;;;;;;7.18;1.48;;;15.40;69.30;;;;;;5027262;28;20037;-66
2023/10/08 14:11:24;;;;;;;10.95;2.05;;;15.40;69.30;;;;;;5003530;28;20041;-66